Airfield :







YOU CAN JOIN US ON...

 
LOGIN :

Register | Disclaimer

   EN    FR    IT 

 









Legend :    VFR   Marginal VFR   IFR   Intensive IFR   Very Intensive IFR
Visi :
Ceiling :
>= 8 km
>= 3000ft
5 to 8 km
1000 to 3000 ft
1500m to 5 km
500 to 1000 ft
800 to 1500m
200 to 500 ft
< 800m
< 200 ft
Symbols :   Thunderstorms  Fog  Heavy snow  Heavy precipitations  Wind > 20 kt






- Airport Elevation : 129 ft
- IATA code : YVP


CYVP - Kuujjuak

CURRENT METAR :
  • 162100Z 31012G18KT 15SM FEW040 FEW100 M09/M12 A3000 RMK SC1AC1 AC TR SLP164

EXPIRED METARs :
  • 162000Z 31011G18KT 15SM FEW020 FEW040 M08/M11 A2997 RMK SC1SC1 SLP154
  • 161923Z 31011G16KT 15SM FEW024 FEW040 SCT100 M07/M10 A2995 RMK SC1SC1AC1 SLP147
  • 161900Z 31015G23KT 15SM -SHSN DRSN FEW024 SCT040 SCT100 M06/M09 A2994 RMK CU1SC2AC1 AC TR SLP145

TAF TAF CYVP
Valid from the 16 at 18:00 until the 17 at 06:00 UTC


161738Z 1618/1706 32015G25KT P6SM -SN SCT010 BKN080
TEMPO 1618/1622 2SM -SN SCT007 OVC015
FM162200 31015KT P6SM BKN010
TEMPO 1622/1706 5SM -SN
BECMG 1623/1701 28008KT RMK NXT FCST BY 170000Z



MET'MAP, your aeronautical weather chart ! - Copyright ORBIFLY December 2007 - Disclaimer

ORBIFLY MET'MAP TEAM :

Programming & Development : Alexandra Zaïnal
Concept & Development : Baudouin d'Aumeries
Co-Development & Prog : Marc-Olivier Méhu
Technical & hardware support : Manuel Goepfert

Contact : metmap@orbifly.com




SOURCES & CREDITS :

   NOAA